createdAt,value
2022-10-05T00:00:27.464Z,6.18
2022-10-05T00:02:55.860Z,6.24
2022-10-05T00:05:32.646Z,6.16
2022-10-05T00:08:13.027Z,6.19
2022-10-05T00:10:43.531Z,6.13
2022-10-05T00:13:21.451Z,6.11
2022-10-05T00:15:49.993Z,6.04
2022-10-05T00:18:20.405Z,5.97
2022-10-05T00:20:48.883Z,6.00
2022-10-05T00:23:26.091Z,5.91
2022-10-05T00:25:52.916Z,5.89
2022-10-05T00:28:30.257Z,5.90
2022-10-05T00:30:59.300Z,5.87
2022-10-05T00:33:27.373Z,5.83
2022-10-05T00:35:55.522Z,5.71
2022-10-05T00:38:22.558Z,5.77
2022-10-05T00:41:03.518Z,5.79
2022-10-05T00:43:49.035Z,5.72
2022-10-05T00:46:47.099Z,5.73
2022-10-05T00:49:32.482Z,5.68
2022-10-05T00:52:41.222Z,5.59
2022-10-05T00:55:13.649Z,5.56
2022-10-05T00:57:58.373Z,5.59
2022-10-05T01:00:26.983Z,5.52
2022-10-05T01:03:10.330Z,5.53
2022-10-05T01:06:15.649Z,5.51
2022-10-05T01:08:54.514Z,5.36
2022-10-05T01:11:50.484Z,5.44
2022-10-05T01:14:30.186Z,5.46
2022-10-05T01:17:09.553Z,5.47
2022-10-05T01:20:05.572Z,5.39
2022-10-05T01:22:57.266Z,5.47
2022-10-05T01:25:42.689Z,5.38
2022-10-05T01:28:19.299Z,5.33
2022-10-05T01:31:12.101Z,5.31
2022-10-05T02:11:45.970Z,5.01
2022-10-05T02:14:18.556Z,5.07
2022-10-05T02:16:52.014Z,4.89
2022-10-05T02:19:25.690Z,5.02
2022-10-05T02:21:59.779Z,5.00
2022-10-05T02:24:32.458Z,4.89
2022-10-05T02:26:59.864Z,4.87
2022-10-05T02:29:32.358Z,5.02
2022-10-05T02:32:04.449Z,5.03
2022-10-05T02:34:39.607Z,5.02
2022-10-05T02:37:36.044Z,4.94
2022-10-05T02:40:38.150Z,4.91
2022-10-05T02:43:24.030Z,4.88
2022-10-05T02:46:01.414Z,4.82
2022-10-05T02:48:43.372Z,4.78
2022-10-05T02:51:39.101Z,4.74
2022-10-05T02:54:21.990Z,4.80
2022-10-05T02:57:00.502Z,4.69
2022-10-05T02:59:38.187Z,4.74
2022-10-05T03:02:18.847Z,4.72
2022-10-05T03:04:54.483Z,4.56
2022-10-05T03:07:27.867Z,4.61
2022-10-05T03:10:09.920Z,4.64
2022-10-05T03:12:52.577Z,4.60
2022-10-05T03:15:49.258Z,4.66
2022-10-05T03:18:42.963Z,4.53
2022-10-05T03:21:26.459Z,4.41
2022-10-05T03:23:53.231Z,4.40
2022-10-05T03:26:38.285Z,4.66
2022-10-05T03:29:14.391Z,4.62
2022-10-05T03:31:48.840Z,4.65
2022-10-05T03:34:29.176Z,4.54
2022-10-05T03:37:15.663Z,4.52
2022-10-05T03:40:01.747Z,4.48
2022-10-05T03:43:15.477Z,4.42
2022-10-05T03:45:53.022Z,4.51
2022-10-05T03:48:32.489Z,4.33
2022-10-05T03:51:17.404Z,4.44
2022-10-05T03:53:53.121Z,4.39
2022-10-05T03:56:32.105Z,4.35
2022-10-05T03:59:20.782Z,4.37
2022-10-05T04:02:06.026Z,4.35
2022-10-05T04:05:13.635Z,4.42
2022-10-05T04:08:11.610Z,4.24
2022-10-05T04:10:52.122Z,4.31
2022-10-05T04:13:26.938Z,4.35
2022-10-05T04:16:32.271Z,4.20
2022-10-05T04:19:04.259Z,4.30
2022-10-05T04:21:40.194Z,4.31
2022-10-05T04:24:16.164Z,4.24
2022-10-05T04:26:53.231Z,4.18
2022-10-05T04:30:00.500Z,4.21
2022-10-05T04:32:41.985Z,4.12
2022-10-05T04:35:17.593Z,4.14
2022-10-05T04:38:17.079Z,4.12
2022-10-05T04:40:52.090Z,3.99
2022-10-05T04:43:32.426Z,4.03
2022-10-05T04:46:21.654Z,4.10
2022-10-05T04:49:22.566Z,4.02
2022-10-05T04:51:55.326Z,4.07
2022-10-05T04:54:35.518Z,4.06
2022-10-05T04:57:10.628Z,3.96
2022-10-05T05:00:09.120Z,4.04
2022-10-05T05:02:59.139Z,4.10
2022-10-05T05:06:12.134Z,4.12
2022-10-05T05:08:48.266Z,4.14
2022-10-05T05:11:27.160Z,4.22
2022-10-05T05:14:21.582Z,4.26
2022-10-05T05:17:04.579Z,4.28
2022-10-05T05:19:40.251Z,4.33
2022-10-05T05:22:20.521Z,4.41
2022-10-05T05:25:11.721Z,4.34
2022-10-05T05:27:52.275Z,4.49
2022-10-05T05:30:43.984Z,4.54
2022-10-05T05:33:23.424Z,4.55
2022-10-05T05:36:13.207Z,4.58
2022-10-05T05:38:42.687Z,4.83
2022-10-05T05:41:19.739Z,4.88
2022-10-05T05:44:25.461Z,4.96
2022-10-05T05:47:23.323Z,5.01
2022-10-05T05:50:18.418Z,5.02
2022-10-05T05:52:58.763Z,5.15
2022-10-05T05:55:39.526Z,5.19
2022-10-05T05:58:24.990Z,5.17
2022-10-05T06:01:01.462Z,5.31
2022-10-05T06:03:37.629Z,5.49
2022-10-05T06:06:09.905Z,5.55
2022-10-05T06:08:51.533Z,5.59
2022-10-05T06:11:23.855Z,5.77
2022-10-05T06:13:51.989Z,5.78
2022-10-05T06:16:25.144Z,5.83
2022-10-05T06:18:59.399Z,5.89
2022-10-05T06:21:37.426Z,5.88
2022-10-05T06:24:10.363Z,6.12
2022-10-05T06:26:46.517Z,6.21
2022-10-05T06:29:20.909Z,6.33
2022-10-05T06:31:58.562Z,6.43
2022-10-05T06:34:34.987Z,6.49
2022-10-05T06:37:09.778Z,6.57
2022-10-05T06:40:09.446Z,6.52
2022-10-05T06:43:00.428Z,6.85
2022-10-05T06:45:36.609Z,7.02
2022-10-05T06:48:25.533Z,7.17
2022-10-05T06:51:00.539Z,7.20
2022-10-05T06:53:56.833Z,7.45
2022-10-05T06:56:48.997Z,7.62
2022-10-05T06:59:27.700Z,8.11
2022-10-05T07:02:13.029Z,8.32
2022-10-05T07:05:04.199Z,8.71
2022-10-05T07:07:42.962Z,8.73
2022-10-05T07:10:34.507Z,8.72
2022-10-05T07:13:36.861Z,8.84
2022-10-05T07:16:21.980Z,9.05
2022-10-05T07:19:10.419Z,9.23
2022-10-05T07:21:46.441Z,9.38
2022-10-05T07:24:42.542Z,9.77
2022-10-05T07:27:23.600Z,10.07
2022-10-05T07:30:05.824Z,10.31
2022-10-05T07:32:44.315Z,10.49
2022-10-05T07:36:04.767Z,10.75
2022-10-05T07:38:46.885Z,11.23
2022-10-05T07:41:20.958Z,11.40
2022-10-05T07:44:22.689Z,11.66
2022-10-05T07:47:03.468Z,11.85
2022-10-05T07:50:04.112Z,12.17
2022-10-05T07:52:36.884Z,12.66
2022-10-05T07:55:25.454Z,12.94
2022-10-05T07:57:52.250Z,13.12
2022-10-05T08:00:24.490Z,13.62
2022-10-05T08:03:10.372Z,13.57
2022-10-05T08:05:41.957Z,13.47
2022-10-05T08:08:13.240Z,13.81
2022-10-05T08:10:55.227Z,14.44
2022-10-05T08:13:37.875Z,14.51
2022-10-05T08:16:14.660Z,14.98
2022-10-05T08:19:19.777Z,14.83
2022-10-05T08:22:03.252Z,15.28
2022-10-05T08:24:39.088Z,15.00
2022-10-05T08:27:15.534Z,14.91
2022-10-05T08:29:48.413Z,15.30
2022-10-05T08:32:47.729Z,15.13
2022-10-05T08:35:37.789Z,14.73
2022-10-05T08:38:13.697Z,14.32
2022-10-05T08:41:22.247Z,14.08
2022-10-05T08:44:03.053Z,13.85
2022-10-05T08:46:46.380Z,13.97
2022-10-05T08:49:22.368Z,14.38
2022-10-05T08:52:17.039Z,15.39
2022-10-05T08:55:08.488Z,15.93
2022-10-05T08:57:58.813Z,16.55
2022-10-05T09:00:39.355Z,17.18
2022-10-05T09:03:37.199Z,18.43
2022-10-05T09:06:06.984Z,18.02
2022-10-05T09:08:44.929Z,18.53
2022-10-05T09:11:20.416Z,18.92
2022-10-05T09:14:18.149Z,18.69
2022-10-05T09:17:04.863Z,19.25
2022-10-05T09:19:52.645Z,20.17
2022-10-05T09:22:47.376Z,20.59
2022-10-05T09:25:26.175Z,20.98
2022-10-05T09:27:58.984Z,20.88
2022-10-05T09:30:47.778Z,20.99
2022-10-05T09:33:27.080Z,20.61
2022-10-05T09:35:58.066Z,20.57
2022-10-05T09:38:46.607Z,19.74
2022-10-05T09:41:32.211Z,19.30
2022-10-05T09:44:11.353Z,19.39
2022-10-05T09:47:04.423Z,18.44
2022-10-05T09:50:09.099Z,18.23
2022-10-05T09:53:30.089Z,18.97
2022-10-05T09:56:21.399Z,19.68
2022-10-05T09:59:16.119Z,20.53
2022-10-05T10:02:07.796Z,20.50
2022-10-05T10:05:01.769Z,20.85
2022-10-05T10:07:58.780Z,21.11
2022-10-05T10:11:04.234Z,20.58
2022-10-05T10:13:46.685Z,21.13
2022-10-05T10:16:35.619Z,20.47
2022-10-05T10:19:21.193Z,20.44
2022-10-05T10:22:01.917Z,20.23
2022-10-05T10:24:43.929Z,20.21
2022-10-05T10:27:52.380Z,19.32
2022-10-05T10:30:35.731Z,18.92
2022-10-05T10:33:14.171Z,19.55
2022-10-05T10:35:48.439Z,19.69
2022-10-05T10:38:40.308Z,20.63
2022-10-05T10:41:22.426Z,21.12
2022-10-05T10:44:11.210Z,20.01
2022-10-05T10:46:44.910Z,18.74
2022-10-05T10:49:33.712Z,19.74
2022-10-05T10:52:48.123Z,19.76
2022-10-05T10:55:38.137Z,20.36
2022-10-05T10:58:52.753Z,20.75
2022-10-05T11:01:52.687Z,21.63
2022-10-05T11:04:19.566Z,21.25
2022-10-05T11:07:23.651Z,21.17
2022-10-05T11:10:22.908Z,21.65
2022-10-05T11:12:52.460Z,22.09
2022-10-05T11:15:47.434Z,22.06
2022-10-05T11:18:45.928Z,21.33
2022-10-05T11:21:36.928Z,21.90
2022-10-05T11:24:28.209Z,22.10
2022-10-05T11:29:59.401Z,21.54
2022-10-05T11:32:51.151Z,22.02
2022-10-05T11:35:39.435Z,22.51
2022-10-05T11:38:57.956Z,22.59
2022-10-05T11:41:38.900Z,23.56
2022-10-05T11:44:33.410Z,22.68
2022-10-05T11:47:26.422Z,22.53
2022-10-05T11:50:18.077Z,22.20
2022-10-05T11:52:59.371Z,21.89
2022-10-05T11:55:47.995Z,21.35
2022-10-05T11:58:14.725Z,21.12
2022-10-05T12:00:57.985Z,21.77
2022-10-05T12:03:37.148Z,21.26
2022-10-05T12:06:22.264Z,20.74
2022-10-05T12:09:26.882Z,20.01
2022-10-05T12:12:07.824Z,20.10
2022-10-05T12:15:03.013Z,20.65
2022-10-05T12:17:56.428Z,20.80
2022-10-05T12:20:26.605Z,20.58
2022-10-05T12:23:07.176Z,20.94
2022-10-05T12:25:45.719Z,20.10
2022-10-05T12:28:18.328Z,20.05
2022-10-05T12:31:12.604Z,20.83
2022-10-05T12:34:01.871Z,20.54
2022-10-05T12:36:59.708Z,20.69
2022-10-05T12:39:43.274Z,20.81
2022-10-05T12:42:21.223Z,20.77
2022-10-05T12:45:01.283Z,20.60
2022-10-05T12:48:00.103Z,20.67
2022-10-05T12:50:36.854Z,20.94
2022-10-05T12:53:35.169Z,20.75
2022-10-05T12:56:08.198Z,20.71
2022-10-05T12:58:35.162Z,20.65
2022-10-05T13:01:28.585Z,21.13
2022-10-05T13:04:28.769Z,21.58
2022-10-05T13:07:29.854Z,21.86
2022-10-05T13:10:42.575Z,22.04
2022-10-05T13:13:39.975Z,22.05
2022-10-05T13:16:22.382Z,21.74
2022-10-05T13:19:16.041Z,22.05
2022-10-05T13:22:07.463Z,21.20
2022-10-05T13:24:40.133Z,21.07
2022-10-05T13:27:17.869Z,20.88
2022-10-05T13:30:05.115Z,20.05
2022-10-05T13:32:40.225Z,19.79
2022-10-05T13:35:37.709Z,19.81
2022-10-05T13:38:51.292Z,20.11
2022-10-05T13:41:31.843Z,20.30
2022-10-05T13:44:17.048Z,20.05
2022-10-05T13:46:52.959Z,19.94
2022-10-05T13:49:38.254Z,19.43
2022-10-05T13:52:08.774Z,19.78
2022-10-05T13:54:51.080Z,19.66
2022-10-05T13:57:27.931Z,19.59
2022-10-05T14:00:06.165Z,19.67
2022-10-05T14:02:40.330Z,19.64
2022-10-05T14:05:27.523Z,19.81
2022-10-05T14:08:18.974Z,19.42
2022-10-05T14:10:47.538Z,19.53
2022-10-05T14:13:34.663Z,19.31
2022-10-05T14:16:13.635Z,19.50
2022-10-05T14:19:05.092Z,19.31
2022-10-05T14:21:42.879Z,19.21
2022-10-05T14:24:46.649Z,19.28
2022-10-05T14:27:19.089Z,19.02
2022-10-05T14:29:54.454Z,19.00
2022-10-05T14:32:27.157Z,19.24
2022-10-05T14:35:05.167Z,19.01
2022-10-05T14:37:43.383Z,18.74
2022-10-05T14:40:37.472Z,18.67
2022-10-05T14:43:18.609Z,18.54
2022-10-05T14:45:57.809Z,18.59
2022-10-05T14:48:29.761Z,18.49
2022-10-05T14:50:59.427Z,18.40
2022-10-05T14:53:41.640Z,18.51
2022-10-05T14:56:17.053Z,18.45
2022-10-05T14:58:47.156Z,18.41
2022-10-05T15:01:20.444Z,18.36
2022-10-05T15:04:07.032Z,18.13
2022-10-05T15:06:58.443Z,18.18
2022-10-05T15:10:04.224Z,18.08
2022-10-05T15:12:35.435Z,17.96
2022-10-05T15:15:14.935Z,17.79
2022-10-05T15:17:52.623Z,17.71
2022-10-05T15:20:36.040Z,17.53
2022-10-05T15:23:03.308Z,17.61
2022-10-05T15:25:42.207Z,17.59
2022-10-05T15:28:21.515Z,17.56
2022-10-05T15:31:04.007Z,17.45
2022-10-05T15:33:39.783Z,17.27
2022-10-05T15:36:24.650Z,17.18
2022-10-05T15:39:12.367Z,17.28
2022-10-05T15:42:02.500Z,17.24
2022-10-05T15:44:52.197Z,17.20
2022-10-05T15:47:28.062Z,17.03
2022-10-05T15:50:10.310Z,17.04
2022-10-05T15:52:44.046Z,16.86
2022-10-05T15:55:26.947Z,16.84
2022-10-05T15:58:31.744Z,16.82
2022-10-05T16:01:08.076Z,16.65
2022-10-05T16:03:59.329Z,16.60
2022-10-05T16:06:50.944Z,16.50
2022-10-05T16:09:49.809Z,16.46
2022-10-05T16:12:28.947Z,16.33
2022-10-05T16:15:16.284Z,16.21
2022-10-05T16:18:26.935Z,16.06
2022-10-05T16:21:05.454Z,15.96
2022-10-05T16:23:44.601Z,15.90
2022-10-05T16:26:38.670Z,15.81
2022-10-05T16:29:11.843Z,15.84
2022-10-05T16:32:25.029Z,15.80
2022-10-05T16:35:25.382Z,15.72
2022-10-05T16:38:07.612Z,15.63
2022-10-05T16:40:50.744Z,15.54
2022-10-05T16:43:49.353Z,15.47
2022-10-05T16:46:37.184Z,15.34
2022-10-05T16:49:13.110Z,15.20
2022-10-05T16:51:55.002Z,15.06
2022-10-05T16:54:32.006Z,15.10
2022-10-05T16:57:25.827Z,15.00
2022-10-05T17:00:08.881Z,14.71
2022-10-05T17:02:48.301Z,14.89
2022-10-05T17:05:21.127Z,14.83
2022-10-05T17:08:26.538Z,14.75
2022-10-05T17:11:05.669Z,14.70
2022-10-05T17:13:41.978Z,14.59
2022-10-05T17:16:33.723Z,14.54
2022-10-05T17:19:15.863Z,14.44
2022-10-05T17:21:50.149Z,14.37
2022-10-05T17:24:47.721Z,14.32
2022-10-05T17:27:17.759Z,14.22
2022-10-05T17:29:52.344Z,14.15
2022-10-05T17:32:19.108Z,14.10
2022-10-05T17:35:01.147Z,14.09
2022-10-05T17:37:27.835Z,14.02
2022-10-05T17:39:57.266Z,13.94
2022-10-05T17:42:26.828Z,13.89
2022-10-05T17:45:14.783Z,13.83
2022-10-05T17:48:09.715Z,13.70
2022-10-05T17:51:06.631Z,13.59
2022-10-05T17:54:01.404Z,13.37
2022-10-05T17:56:33.888Z,13.38
2022-10-05T17:59:04.568Z,13.23
2022-10-05T18:01:35.697Z,13.22
2022-10-05T18:04:11.948Z,13.00
2022-10-05T18:06:44.833Z,13.08
2022-10-05T18:09:20.572Z,12.90
2022-10-05T18:12:09.685Z,12.93
2022-10-05T18:15:02.353Z,12.88
2022-10-05T18:17:40.025Z,12.84
2022-10-05T18:20:18.496Z,12.80
2022-10-05T18:22:51.199Z,12.75
2022-10-05T18:25:33.351Z,12.60
2022-10-05T18:28:19.066Z,12.66
2022-10-05T18:31:11.925Z,12.61
2022-10-05T18:33:44.812Z,12.40
2022-10-05T18:36:21.384Z,12.47
2022-10-05T18:38:56.936Z,12.40
2022-10-05T18:41:54.714Z,12.37
2022-10-05T18:44:31.929Z,12.34
2022-10-05T18:47:17.190Z,12.30
2022-10-05T18:49:53.035Z,12.23
2022-10-05T18:52:32.510Z,12.24
2022-10-05T18:55:26.561Z,12.17
2022-10-05T18:58:30.784Z,12.16
2022-10-05T19:01:20.660Z,12.14
2022-10-05T19:03:49.247Z,12.14
2022-10-05T19:06:33.501Z,12.06
2022-10-05T19:09:19.941Z,12.05
2022-10-05T19:11:52.763Z,12.00
2022-10-05T19:14:29.407Z,11.83
2022-10-05T19:17:15.020Z,11.89
2022-10-05T19:19:43.868Z,11.85
2022-10-05T19:22:25.930Z,11.89
2022-10-05T19:24:53.148Z,11.83
2022-10-05T19:27:45.542Z,11.81
2022-10-05T19:30:18.335Z,11.75
2022-10-05T19:33:06.882Z,11.66
2022-10-05T19:36:13.120Z,11.70
2022-10-05T19:39:04.352Z,11.66
2022-10-05T19:41:44.590Z,11.68
2022-10-05T19:44:29.660Z,11.63
2022-10-05T19:47:02.714Z,11.56
2022-10-05T19:49:35.517Z,11.61
2022-10-05T19:52:03.310Z,11.57
2022-10-05T19:54:30.224Z,11.54
2022-10-05T19:57:00.717Z,11.47
2022-10-05T19:59:31.476Z,11.46
2022-10-05T20:01:59.240Z,11.45
2022-10-05T20:04:36.323Z,11.30
2022-10-05T20:07:04.163Z,11.36
2022-10-05T20:09:53.531Z,11.46
2022-10-05T20:12:23.135Z,11.24
2022-10-05T20:15:26.887Z,11.29
2022-10-05T20:18:12.141Z,11.18
2022-10-05T20:20:45.738Z,11.28
2022-10-05T20:23:22.379Z,11.30
2022-10-05T20:26:09.285Z,11.27
2022-10-05T20:28:36.454Z,11.25
2022-10-05T20:31:05.655Z,11.23
2022-10-05T20:33:34.481Z,11.21
2022-10-05T20:36:03.744Z,11.17
2022-10-05T20:38:31.805Z,11.09
2022-10-05T20:40:58.820Z,10.98
2022-10-05T20:43:31.829Z,11.00
2022-10-05T20:45:58.639Z,10.81
2022-10-05T20:48:26.314Z,10.99
2022-10-05T20:50:54.206Z,10.81
2022-10-05T20:53:21.022Z,10.93
2022-10-05T20:55:47.876Z,10.77
2022-10-05T20:58:16.365Z,10.82
2022-10-05T21:01:01.731Z,10.68
2022-10-05T21:03:28.722Z,10.63
2022-10-05T21:05:55.547Z,10.61
2022-10-05T21:08:22.387Z,10.64
2022-10-05T21:10:50.458Z,10.48
2022-10-05T21:13:18.473Z,10.43
2022-10-05T21:15:45.280Z,10.51
2022-10-05T21:18:12.147Z,10.48
2022-10-05T21:20:38.975Z,10.39
2022-10-05T21:23:05.746Z,10.37
2022-10-05T21:25:33.874Z,10.27
2022-10-05T21:28:00.709Z,10.31
2022-10-05T21:30:29.539Z,10.37
2022-10-05T21:32:56.523Z,10.27
2022-10-05T21:35:23.373Z,10.36
2022-10-05T21:37:50.237Z,10.24
2022-10-05T21:40:17.210Z,10.23
2022-10-05T21:42:44.045Z,10.20
2022-10-05T21:45:11.099Z,10.13
2022-10-05T21:47:38.041Z,10.29
2022-10-05T21:50:08.025Z,10.12
2022-10-05T21:52:35.824Z,10.12
2022-10-05T21:55:05.906Z,10.11
2022-10-05T21:57:34.718Z,10.05
2022-10-05T22:00:02.563Z,10.16
2022-10-05T22:02:29.660Z,10.10
2022-10-05T22:04:58.179Z,10.12
2022-10-05T22:07:25.019Z,9.94
2022-10-05T22:09:53.060Z,10.07
2022-10-05T22:12:20.121Z,9.90
2022-10-05T22:14:47.552Z,9.91
2022-10-05T22:17:21.365Z,9.99
2022-10-05T22:19:49.197Z,9.82
2022-10-05T22:22:16.024Z,9.92
2022-10-05T22:24:43.007Z,9.78
2022-10-05T22:27:09.825Z,9.91
2022-10-05T22:29:37.741Z,9.81
2022-10-05T22:32:04.811Z,9.95
2022-10-05T22:34:31.703Z,9.86
2022-10-05T22:36:59.472Z,9.97
2022-10-05T22:39:26.587Z,9.82
2022-10-05T22:41:53.436Z,9.88
2022-10-05T22:44:20.824Z,9.90
2022-10-05T22:46:47.718Z,9.81
2022-10-05T22:49:15.015Z,9.98
2022-10-05T22:51:42.633Z,9.91
2022-10-05T22:54:09.447Z,9.95
2022-10-05T22:56:36.319Z,10.05
2022-10-05T22:59:03.350Z,9.90
2022-10-05T23:01:30.385Z,9.91
2022-10-05T23:03:57.416Z,9.99
2022-10-05T23:06:26.672Z,9.89
2022-10-05T23:08:54.580Z,10.01
2022-10-05T23:11:26.939Z,10.01
2022-10-05T23:13:58.077Z,9.85
2022-10-05T23:16:27.468Z,9.98
2022-10-05T23:18:55.079Z,10.00
2022-10-05T23:21:24.200Z,9.94
2022-10-05T23:23:51.412Z,9.85
2022-10-05T23:26:21.878Z,9.90
2022-10-05T23:28:49.280Z,9.89
2022-10-05T23:31:19.934Z,9.69
2022-10-05T23:33:47.320Z,9.88
2022-10-05T23:36:16.786Z,9.88
2022-10-05T23:38:44.364Z,9.87
2022-10-05T23:41:11.738Z,9.71
2022-10-05T23:43:38.927Z,9.75
2022-10-05T23:46:07.268Z,9.74
2022-10-05T23:48:38.013Z,9.83
2022-10-05T23:51:07.020Z,9.78
2022-10-05T23:53:36.292Z,9.62
2022-10-05T23:56:03.668Z,9.58
2022-10-05T23:58:30.991Z,9.60
